Time;durP1;ratioP1;P1;durP2;ratioP2;P2;SDS_P1;SDS_P2;PMS_P1;PMS_P2;Temp;Humidity;BMP_temperature;BMP_pressure;BME280_temperature;BME280_humidity;BME280_pressure;Samples;Min_cycle;Max_cycle;Signal;HPM_P1;HPM_P2
2024/01/28 00:00:18;;;;;;;30.23;10.70;;;;;;;2.69;100.00;102799.31;5031009;28;20763;-78
2024/01/28 00:02:43;;;;;;;30.40;12.50;;;;;;;2.63;100.00;102789.03;5031636;28;20845;-79
2024/01/28 00:05:13;;;;;;;37.75;12.88;;;;;;;2.54;100.00;102793.75;5014814;28;20039;-75
2024/01/28 00:07:39;;;;;;;26.88;12.45;;;;;;;2.53;100.00;102809.63;5028599;28;20100;-78
2024/01/28 00:10:04;;;;;;;35.05;12.10;;;;;;;2.60;100.00;102823.41;5027758;28;20433;-75
2024/01/28 00:12:30;;;;;;;29.23;11.27;;;;;;;2.48;100.00;102817.72;5023763;28;20103;-76
2024/01/28 00:14:56;;;;;;;26.25;10.70;;;;;;;2.51;100.00;102804.41;5029414;28;20033;-78
2024/01/28 00:17:21;;;;;;;24.90;11.63;;;;;;;2.64;100.00;102814.47;5032079;28;20040;-78
2024/01/28 00:19:47;;;;;;;30.20;10.53;;;;;;;2.60;100.00;102799.69;5030257;28;20021;-77
2024/01/28 00:22:12;;;;;;;45.03;14.55;;;;;;;2.56;100.00;102787.56;5030324;28;20359;-77
2024/01/28 00:24:37;;;;;;;37.37;11.77;;;;;;;2.45;100.00;102766.88;5030387;28;20029;-77
2024/01/28 00:27:03;;;;;;;38.90;11.33;;;;;;;2.48;100.00;102772.91;5013865;28;20287;-78
2024/01/28 00:29:31;;;;;;;39.92;11.93;;;;;;;2.51;100.00;102779.84;5012044;28;20032;-76
2024/01/28 00:31:57;;;;;;;27.45;11.60;;;;;;;2.46;100.00;102765.97;5010714;28;20048;-77
2024/01/28 00:34:23;;;;;;;;;;;;;;;2.53;100.00;102767.44;5028893;28;20032;-78
2024/01/28 00:36:48;;;;;;;35.58;11.77;;;;;;;2.45;100.00;102746.63;5009970;28;19920;-76
2024/01/28 00:39:14;;;;;;;41.22;13.73;;;;;;;2.38;100.00;102739.03;5045086;28;20044;-76
2024/01/28 00:41:39;;;;;;;47.97;13.57;;;;;;;2.32;100.00;102741.00;5029917;28;20037;-75
2024/01/28 00:44:05;;;;;;;39.13;12.50;;;;;;;2.27;100.00;102736.81;5018668;28;20033;-76
2024/01/28 00:46:32;;;;;;;51.53;13.15;;;;;;;2.31;100.00;102756.88;5012916;28;20264;-78
2024/01/28 00:48:57;;;;;;;33.58;12.85;;;;;;;2.30;100.00;102763.06;5013659;28;20028;-78
2024/01/28 00:51:23;;;;;;;32.83;12.60;;;;;;;2.21;100.00;102752.88;5013417;28;20033;-78
2024/01/28 00:53:49;;;;;;;37.60;14.52;;;;;;;2.17;100.00;102746.00;5029761;28;20940;-75
2024/01/28 00:56:16;;;;;;;32.08;14.27;;;;;;;2.06;100.00;102747.28;5012170;28;20045;-76
2024/01/28 00:58:45;;;;;;;29.33;12.35;;;;;;;2.14;100.00;102764.59;5029863;28;20516;-76
2024/01/28 01:01:10;;;;;;;31.25;13.00;;;;;;;2.15;100.00;102750.47;5030485;28;20039;-77
2024/01/28 01:03:35;;;;;;;46.95;14.68;;;;;;;2.10;100.00;102762.03;5014129;28;20025;-79
2024/01/28 01:06:01;;;;;;;37.10;13.43;;;;;;;2.08;100.00;102756.00;5013702;28;20043;-78
2024/01/28 01:08:26;;;;;;;36.85;14.35;;;;;;;2.16;100.00;102762.75;5030213;28;20033;-78
2024/01/28 01:10:52;;;;;;;33.95;13.60;;;;;;;1.83;100.00;102727.06;5042706;28;20029;-77
2024/01/28 01:13:17;;;;;;;41.70;14.90;;;;;;;1.85;100.00;102737.53;5038607;28;20554;-78
2024/01/28 01:15:43;;;;;;;36.10;13.30;;;;;;;1.94;100.00;102758.28;5030522;28;20025;-77
2024/01/28 01:18:08;;;;;;;41.45;15.60;;;;;;;1.81;100.00;102735.97;5023240;28;20924;-77
2024/01/28 01:20:33;;;;;;;36.08;13.73;;;;;;;1.83;100.00;102744.66;5029652;28;20062;-77
2024/01/28 01:22:59;;;;;;;35.50;14.07;;;;;;;1.80;100.00;102744.75;5025221;28;20052;-78
2024/01/28 01:25:24;;;;;;;34.92;14.65;;;;;;;1.83;100.00;102765.72;5012218;28;20037;-78
2024/01/28 01:27:52;;;;;;;54.50;16.15;;;;;;;1.95;100.00;102772.31;5029904;28;20029;-80
2024/01/28 01:30:18;;;;;;;43.50;16.30;;;;;;;1.89;100.00;102755.81;5029871;28;20052;-77
2024/01/28 01:32:43;;;;;;;39.33;15.27;;;;;;;1.74;100.00;102737.94;5047700;28;20021;-77
2024/01/28 01:35:12;;;;;;;41.35;15.68;;;;;;;1.73;100.00;102745.91;5029825;28;20068;-77
2024/01/28 01:37:37;;;;;;;39.05;15.40;;;;;;;1.76;100.00;102758.97;5002335;28;20041;-78
2024/01/28 01:40:05;;;;;;;40.85;16.60;;;;;;;1.81;100.00;102757.03;5043128;28;20024;-77
2024/01/28 01:42:30;;;;;;;39.83;18.75;;;;;;;1.81;100.00;102741.22;5021506;28;20029;-77
2024/01/28 01:44:55;;;;;;;43.92;17.63;;;;;;;1.80;100.00;102744.75;5029661;28;20063;-77
2024/01/28 01:47:22;;;;;;;41.72;16.48;;;;;;;1.87;100.00;102754.16;5056845;28;20028;-77
2024/01/28 01:49:47;;;;;;;33.75;16.15;;;;;;;1.85;100.00;102735.78;5035988;28;20086;-77
2024/01/28 01:52:16;;;;;;;40.60;15.57;;;;;;;1.79;100.00;102727.25;5012841;28;20037;-77
2024/01/28 01:54:42;;;;;;;40.05;17.38;;;;;;;1.88;100.00;102737.44;5005680;28;20055;-77
2024/01/28 01:57:08;;;;;;;50.33;17.60;;;;;;;1.89;100.00;102718.94;5047539;28;20094;-77
2024/01/28 01:59:35;;;;;;;41.75;18.95;;;;;;;1.79;100.00;102698.28;5022067;28;20037;-78
2024/01/28 02:02:02;;;;;;;43.83;19.02;;;;;;;1.75;100.00;102688.75;5033814;28;20042;-78
2024/01/28 02:04:27;;;;;;;44.17;18.95;;;;;;;1.69;100.00;102698.63;5047973;28;20060;-79
2024/01/28 02:06:52;;;;;;;46.00;18.20;;;;;;;1.51;100.00;102678.25;5013471;28;20033;-78
2024/01/28 02:09:18;;;;;;;42.97;20.13;;;;;;;1.43;100.00;102688.19;5020600;28;20103;-78
2024/01/28 02:11:45;;;;;;;48.30;18.08;;;;;;;1.41;100.00;102709.31;5010551;28;20136;-78
2024/01/28 02:14:20;;;;;;;47.33;21.50;;;;;;;1.36;100.00;102716.50;5040843;28;20029;-78
2024/01/28 02:16:48;;;;;;;47.50;19.52;;;;;;;1.51;100.00;102744.06;5012493;28;20032;-78
2024/01/28 02:19:14;;;;;;;38.67;18.63;;;;;;;1.48;100.00;102734.50;5009038;28;20044;-78
2024/01/28 02:21:39;;;;;;;37.08;18.88;;;;;;;1.47;100.00;102729.28;5011079;28;20412;-79
2024/01/28 02:24:04;;;;;;;36.08;17.40;;;;;;;1.48;100.00;102731.00;5028365;28;20025;-78
2024/01/28 02:26:30;;;;;;;40.33;17.55;;;;;;;1.49;100.00;102716.91;5009457;28;20041;-78
2024/01/28 02:28:55;;;;;;;47.03;20.52;;;;;;;1.59;100.00;102715.69;5010412;28;20014;-77
2024/01/28 02:31:21;;;;;;;43.72;18.55;;;;;;;1.53;100.00;102715.91;5026475;28;20400;-77
2024/01/28 02:33:46;;;;;;;43.80;18.98;;;;;;;1.56;100.00;102707.03;5008771;28;20022;-77
2024/01/28 02:36:11;;;;;;;71.43;20.52;;;;;;;1.51;100.00;102693.19;5016809;28;20085;-77
2024/01/28 02:38:37;;;;;;;37.37;19.03;;;;;;;1.51;100.00;102688.75;5014590;28;20025;-78
2024/01/28 02:41:02;;;;;;;42.10;20.05;;;;;;;1.43;100.00;102682.94;5030805;28;20930;-78
2024/01/28 02:43:27;;;;;;;49.85;20.40;;;;;;;1.33;100.00;102671.84;5023164;28;20033;-79
2024/01/28 02:45:53;;;;;;;43.17;16.95;;;;;;;1.41;100.00;102687.41;5007794;28;20033;-77
2024/01/28 02:48:18;;;;;;;45.47;19.85;;;;;;;1.54;100.00;102691.28;5025186;28;20498;-78
2024/01/28 02:50:44;;;;;;;41.15;19.80;;;;;;;1.50;100.00;102678.28;5011786;28;20057;-76
2024/01/28 02:53:09;;;;;;;49.45;19.77;;;;;;;1.48;100.00;102675.72;5028202;28;20044;-75
2024/01/28 02:55:36;;;;;;;50.58;19.35;;;;;;;1.35;100.00;102662.13;5011182;28;20658;-76
2024/01/28 02:58:02;;;;;;;46.45;21.38;;;;;;;1.41;100.00;102669.81;5007878;28;20128;-77
2024/01/28 03:00:27;;;;;;;48.95;21.05;;;;;;;1.45;100.00;102681.09;5022427;28;20148;-78
2024/01/28 03:02:53;;;;;;;52.78;21.35;;;;;;;1.41;100.00;102669.81;5014396;28;20591;-78
2024/01/28 03:05:18;;;;;;;57.53;22.02;;;;;;;1.32;100.00;102669.31;5016421;28;20036;-76
2024/01/28 03:07:44;;;;;;;50.47;20.75;;;;;;;1.46;100.00;102678.41;5021058;28;20049;-76
2024/01/28 03:10:09;;;;;;;48.70;21.00;;;;;;;1.41;100.00;102671.59;5027811;28;20083;-77
2024/01/28 03:12:35;;;;;;;49.88;22.25;;;;;;;1.38;100.00;102671.69;5046262;28;20028;-79
2024/01/28 03:15:00;;;;;;;40.70;20.90;;;;;;;1.32;100.00;102669.31;5019779;28;20472;-79
2024/01/28 03:17:26;;;;;;;40.17;19.98;;;;;;;1.42;100.00;102666.25;5027845;28;20040;-77
2024/01/28 03:19:51;;;;;;;42.53;19.83;;;;;;;1.35;100.00;102654.25;5022033;28;20029;-79
2024/01/28 03:22:16;;;;;;;43.72;20.10;;;;;;;1.37;100.00;102651.56;5012823;28;20033;-78
2024/01/28 03:24:42;;;;;;;46.47;19.90;;;;;;;1.24;100.00;102641.50;5027857;28;20051;-77
2024/01/28 03:27:07;;;;;;;44.20;21.67;;;;;;;1.25;100.00;102643.19;5036341;28;20037;-79
2024/01/28 03:29:32;;;;;;;54.50;20.42;;;;;;;1.24;100.00;102648.50;5031430;28;20217;-78
2024/01/28 03:31:58;;;;;;;48.75;21.00;;;;;;;1.15;100.00;102631.31;5017740;28;20043;-76
2024/01/28 03:34:23;;;;;;;49.20;21.42;;;;;;;1.12;100.00;102641.91;5031968;28;20032;-78
2024/01/28 03:36:48;;;;;;;49.60;19.77;;;;;;;1.24;100.00;102659.91;5033878;28;20044;-77
2024/01/28 03:39:14;;;;;;;58.05;21.80;;;;;;;1.20;100.00;102644.28;5019556;28;20033;-75
2024/01/28 03:41:40;;;;;;;61.63;22.95;;;;;;;1.19;100.00;102638.16;5032069;28;20029;-77
2024/01/28 03:44:06;;;;;;;55.53;21.85;;;;;;;1.12;100.00;102620.00;5025415;28;20796;-78
2024/01/28 03:46:32;;;;;;;46.00;21.63;;;;;;;1.11;100.00;102613.91;5014093;28;20049;-79
2024/01/28 03:48:59;;;;;;;51.25;20.33;;;;;;;1.05;100.00;102612.38;5044502;28;20397;-78
2024/01/28 03:51:24;;;;;;;49.08;20.92;;;;;;;1.04;100.00;102607.16;5029331;28;20071;-77
2024/01/28 03:53:50;;;;;;;46.72;20.30;;;;;;;1.05;100.00;102616.75;5031677;28;20037;-77
2024/01/28 03:56:15;;;;;;;43.17;21.60;;;;;;;1.06;100.00;102615.84;5016439;28;20120;-77
2024/01/28 03:58:40;;;;;;;61.58;27.10;;;;;;;0.96;100.00;102599.53;5049019;28;20083;-76
2024/01/28 04:01:06;;;;;;;40.90;19.48;;;;;;;0.90;100.00;102594.50;5031045;28;20443;-76
2024/01/28 04:03:31;;;;;;;42.60;20.23;;;;;;;0.85;100.00;102591.16;5022230;28;20048;-77
2024/01/28 04:05:56;;;;;;;41.15;20.73;;;;;;;0.80;100.00;102601.84;5022297;28;20035;-77
2024/01/28 04:08:22;;;;;;;47.03;22.20;;;;;;;0.90;100.00;102623.41;5029010;28;20032;-77
2024/01/28 04:10:47;;;;;;;47.30;21.45;;;;;;;0.90;100.00;102614.69;5031537;28;20631;-78
2024/01/28 04:13:12;;;;;;;44.95;20.38;;;;;;;0.85;100.00;102612.22;5042088;28;20909;-77
2024/01/28 04:15:38;;;;;;;50.85;19.65;;;;;;;0.90;100.00;102614.69;5020476;28;20029;-79
2024/01/28 04:18:05;;;;;;;42.63;20.80;;;;;;;0.93;100.00;102625.06;5006771;28;20041;-77
2024/01/28 04:20:30;;;;;;;44.70;20.20;;;;;;;0.88;100.00;102606.84;5029929;28;20116;-77
2024/01/28 04:22:55;;;;;;;49.53;21.45;;;;;;;0.83;100.00;102601.72;5012120;28;20073;-79
2024/01/28 04:25:21;;;;;;;44.75;19.27;;;;;;;0.75;100.00;102590.63;5031370;28;20041;-78
2024/01/28 04:27:46;;;;;;;39.05;19.83;;;;;;;0.69;100.00;102576.84;5026922;28;20025;-78
2024/01/28 04:30:11;;;;;;;44.08;21.08;;;;;;;0.74;100.00;102585.44;5004073;28;20056;-78
2024/01/28 04:32:37;;;;;;;51.53;19.52;;;;;;;0.81;100.00;102606.19;5014740;28;20036;-76
2024/01/28 04:35:02;;;;;;;40.97;20.45;;;;;;;0.77;100.00;102606.34;5022601;28;20590;-76
2024/01/28 04:37:29;;;;;;;50.35;21.13;;;;;;;0.61;100.00;102598.16;5014074;28;20079;-76
2024/01/28 04:39:55;;;;;;;45.28;20.67;;;;;;;0.67;100.00;102618.94;5014166;28;20048;-75
2024/01/28 04:42:22;;;;;;;54.17;21.52;;;;;;;0.77;100.00;102628.25;5012327;28;20044;-79
2024/01/28 04:44:51;;;;;;;53.13;22.42;;;;;;;0.77;100.00;102630.88;5023640;28;20094;-78
2024/01/28 04:47:16;;;;;;;50.35;20.08;;;;;;;0.70;100.00;102621.47;5015126;28;20095;-80
2024/01/28 04:49:42;;;;;;;49.20;20.80;;;;;;;0.78;100.00;102629.97;5009984;28;20029;-78
2024/01/28 04:52:08;;;;;;;53.38;22.02;;;;;;;0.71;100.00;102612.69;5043744;28;20037;-78
2024/01/28 04:54:33;;;;;;;45.30;19.00;;;;;;;0.72;100.00;102622.28;5047529;28;20051;-77
2024/01/28 04:57:01;;;;;;;54.40;20.90;;;;;;;0.73;100.00;102624.00;5013146;28;20127;-75
2024/01/28 04:59:29;;;;;;;60.33;24.50;;;;;;;0.70;100.00;102615.34;5011418;28;20480;-77
2024/01/28 05:01:55;;;;;;;49.40;20.45;;;;;;;0.71;100.00;102614.47;5013554;28;20036;-78
2024/01/28 05:04:20;;;;;;;55.42;21.77;;;;;;;0.78;100.00;102615.97;5021334;28;20578;-79
2024/01/28 05:06:46;;;;;;;42.78;21.60;;;;;;;0.64;100.00;102603.28;5010113;28;20038;-79
2024/01/28 05:09:12;;;;;;;41.47;19.45;;;;;;;0.69;100.00;102601.34;5024126;28;20061;-78
2024/01/28 05:11:37;;;;;;;55.60;20.48;;;;;;;0.49;100.00;102580.16;5047847;28;20104;-79
2024/01/28 05:14:04;;;;;;;49.42;19.38;;;;;;;0.45;100.00;102594.34;5014021;28;20033;-79
2024/01/28 05:16:30;;;;;;;46.50;21.10;;;;;;;0.47;100.00;102613.50;5013422;28;20029;-78
2024/01/28 05:18:56;;;;;;;;;;;;;;;0.62;100.00;102634.03;5014434;28;20120;-79
2024/01/28 05:21:23;;;;;;;50.78;20.40;;;;;;;0.60;100.00;102622.72;5048066;28;19909;-79
2024/01/28 05:23:49;;;;;;;52.50;19.17;;;;;;;0.71;100.00;102622.34;5004105;28;20241;-78
2024/01/28 05:26:14;;;;;;;44.95;17.88;;;;;;;0.71;100.00;102620.56;5003160;28;20034;-78
2024/01/28 05:28:40;;;;;;;51.45;19.25;;;;;;;0.68;100.00;102593.50;4995356;28;20025;-78
2024/01/28 05:31:07;;;;;;;45.63;18.63;;;;;;;0.73;100.00;102597.72;5016718;28;20043;-78
2024/01/28 05:33:37;;;;;;;38.75;16.75;;;;;;;0.73;100.00;102581.09;5032397;28;20048;-79
2024/01/28 05:36:10;;;;;;;54.13;20.10;;;;;;;0.74;100.00;102588.06;5027768;28;20086;-78
2024/01/28 05:38:35;;;;;;;47.47;18.90;;;;;;;0.75;100.00;102573.97;5030679;28;20033;-79
2024/01/28 05:41:00;;;;;;;53.47;19.33;;;;;;;0.72;100.00;102561.81;5047570;28;20016;-78
2024/01/28 05:43:26;;;;;;;52.08;20.30;;;;;;;0.67;100.00;102560.28;5029495;28;20049;-77
2024/01/28 05:45:52;;;;;;;43.47;17.77;;;;;;;0.54;100.00;102542.31;5030085;28;20103;-79
2024/01/28 05:48:17;;;;;;;48.17;18.50;;;;;;;0.31;100.00;102531.72;5029617;28;20176;-76
2024/01/28 05:50:43;;;;;;;45.80;18.73;;;;;;;0.24;100.00;102519.72;5029682;28;20439;-79
2024/01/28 05:53:08;;;;;;;44.13;18.17;;;;;;;0.30;100.00;102537.88;5030077;28;20040;-76
2024/01/28 05:55:33;;;;;;;52.45;20.30;;;;;;;0.23;100.00;102534.59;5039410;28;20040;-76
2024/01/28 05:57:59;;;;;;;50.55;20.25;;;;;;;0.24;100.00;102535.47;5031011;28;20048;-77
2024/01/28 06:00:24;;;;;;;43.70;19.17;;;;;;;0.25;100.00;102538.03;5026706;28;20083;-78
2024/01/28 06:02:49;;;;;;;39.53;18.20;;;;;;;0.15;100.00;102526.13;5029775;28;20037;-79
2024/01/28 06:05:15;;;;;;;50.65;19.35;;;;;;;0.08;100.00;102514.13;5029424;28;20021;-80
2024/01/28 06:07:40;;;;;;;41.47;17.75;;;;;;;-0.05;100.00;102492.66;5029204;28;20040;-76
2024/01/28 06:10:06;;;;;;;42.40;16.88;;;;;;;-0.11;100.00;102485.84;5012692;28;20077;-78
2024/01/28 06:12:31;;;;;;;51.70;19.52;;;;;;;-0.15;100.00;102483.38;5027813;28;20377;-78
2024/01/28 06:15:02;;;;;;;48.10;18.08;;;;;;;-0.14;100.00;102490.31;5028786;28;20037;-78
2024/01/28 06:17:29;;;;;;;37.00;16.92;;;;;;;-0.19;100.00;102494.88;5029092;28;20106;-79
2024/01/28 06:19:55;;;;;;;42.60;19.05;;;;;;;-0.19;100.00;102500.97;5009084;28;20026;-77
2024/01/28 06:22:20;;;;;;;;;;;;;;;-0.16;100.00;102500.91;5026705;28;20119;-80
2024/01/28 06:24:45;;;;;;;40.67;18.37;;;;;;;-0.09;100.00;102517.31;5022628;28;19919;-78
2024/01/28 06:27:11;;;;;;;42.67;18.63;;;;;;;-0.11;100.00;102513.88;5009779;28;20130;-79
2024/01/28 06:29:36;;;;;;;41.50;15.85;;;;;;;-0.13;100.00;102520.94;5028009;28;20030;-79
2024/01/28 06:32:02;;;;;;;40.17;18.35;;;;;;;-0.18;100.00;102528.97;5018104;28;20022;-78
2024/01/28 06:34:27;;;;;;;47.10;19.33;;;;;;;-0.18;100.00;102522.84;5029650;28;20563;-79
2024/01/28 06:36:52;;;;;;;56.38;19.23;;;;;;;-0.02;100.00;102545.94;5035799;28;20052;-78
2024/01/28 06:39:17;;;;;;;52.03;18.58;;;;;;;0.18;100.00;102594.31;5028020;28;20047;-78
2024/01/28 06:41:43;;;;;;;56.75;18.95;;;;;;;0.34;100.00;102606.03;5024167;28;20547;-79
2024/01/28 06:44:09;;;;;;;51.72;18.42;;;;;;;0.33;100.00;102596.44;5009325;28;20396;-78
2024/01/28 06:46:34;;;;;;;39.33;17.63;;;;;;;0.24;100.00;102588.88;5012779;28;20559;-79
2024/01/28 06:49:00;;;;;;;44.65;17.58;;;;;;;0.37;100.00;102605.06;5017360;28;20022;-79
2024/01/28 06:51:25;;;;;;;45.40;17.60;;;;;;;0.44;100.00;102616.25;5009095;28;20029;-79
2024/01/28 06:53:52;;;;;;;43.72;18.52;;;;;;;0.40;100.00;102607.63;5004464;28;20480;-78
2024/01/28 06:56:17;;;;;;;43.15;16.52;;;;;;;0.48;100.00;102620.50;5029082;28;20029;-79
2024/01/28 06:58:43;;;;;;;47.47;17.95;;;;;;;0.51;100.00;102607.25;5028345;28;20044;-78
2024/01/28 07:01:12;;;;;;;48.80;18.50;;;;;;;0.53;100.00;102606.28;5032233;28;20472;-77
2024/01/28 07:03:37;;;;;;;52.80;19.15;;;;;;;0.55;100.00;102598.34;5032008;28;20031;-78
2024/01/28 07:06:03;;;;;;;44.03;17.30;;;;;;;0.42;100.00;102587.38;5038182;28;20143;-78
2024/01/28 07:08:28;;;;;;;43.92;18.83;;;;;;;0.49;100.00;102593.28;5027520;28;20029;-77
2024/01/28 07:10:53;;;;;;;40.65;17.30;;;;;;;0.53;100.00;102584.41;5026038;28;20044;-76
2024/01/28 07:13:19;;;;;;;44.05;17.30;;;;;;;0.52;100.00;102570.41;5025274;28;20029;-78
2024/01/28 07:15:44;;;;;;;37.78;15.63;;;;;;;0.58;100.00;102566.69;5014448;28;20105;-78
2024/01/28 07:18:09;;;;;;;44.95;16.38;;;;;;;0.56;100.00;102556.25;5026344;28;20065;-77
2024/01/28 07:20:35;;;;;;;44.38;17.92;;;;;;;0.59;100.00;102548.25;5030375;28;20514;-78
2024/01/28 07:23:00;;;;;;;45.75;15.75;;;;;;;0.49;100.00;102533.72;5028364;28;20509;-79
2024/01/28 07:25:26;;;;;;;47.20;16.50;;;;;;;0.43;100.00;102540.97;5054663;28;20029;-77
2024/01/28 07:27:52;;;;;;;43.65;19.13;;;;;;;0.28;100.00;102548.47;5035636;28;20020;-78
2024/01/28 07:30:17;;;;;;;;;;;;;;;0.44;100.00;102576.81;5019468;28;20036;-78
2024/01/28 07:32:42;;;;;;;40.20;16.52;;;;;;;0.52;100.00;102572.19;5031732;28;20702;-78
2024/01/28 07:35:08;;;;;;;48.30;18.48;;;;;;;0.49;100.00;102560.00;5049158;28;20033;-78
2024/01/28 07:37:33;;;;;;;44.42;16.50;;;;;;;0.68;100.00;102570.75;5031073;28;20040;-76
2024/01/28 07:39:58;;;;;;;36.42;16.20;;;;;;;0.67;100.00;102561.13;5012630;28;20389;-76
2024/01/28 07:42:24;;;;;;;45.60;16.98;;;;;;;0.87;100.00;102576.19;5028907;28;20126;-76
2024/01/28 07:44:49;;;;;;;48.28;14.98;;;;;;;0.97;100.00;102574.94;5024799;28;20033;-78
2024/01/28 07:47:14;;;;;;;41.00;14.48;;;;;;;1.15;100.00;102576.06;5042742;28;20022;-78
2024/01/28 07:49:40;;;;;;;44.92;16.15;;;;;;;1.46;100.00;102588.06;5048631;28;20492;-78
2024/01/28 07:52:05;;;;;;;40.95;15.93;;;;;;;1.61;100.00;102582.19;5026673;28;20483;-79
2024/01/28 07:54:30;;;;;;;36.90;16.05;;;;;;;2.05;100.00;102628.78;5037307;28;20435;-79
2024/01/28 07:56:57;;;;;;;43.40;14.38;;;;;;;2.23;100.00;102621.91;5049258;28;20115;-78
2024/01/28 07:59:23;;;;;;;;;;;;;;;2.38;100.00;102657.31;5029909;28;20480;-76
2024/01/28 08:01:48;;;;;;;39.28;16.83;;;;;;;2.09;100.00;102591.69;5028013;28;19971;-75
2024/01/28 08:04:14;;;;;;;29.52;13.73;;;;;;;1.89;100.00;102536.31;5041291;28;20492;-78
2024/01/28 08:06:39;;;;;;;48.25;15.70;;;;;;;1.87;100.00;102510.06;5025533;28;20460;-78
2024/01/28 08:09:05;;;;;;;47.42;14.40;;;;;;;2.36;100.00;102554.56;5034981;28;20057;-79
2024/01/28 08:11:30;;;;;;;32.03;14.05;;;;;;;2.59;100.00;102521.94;5027021;28;20040;-78
2024/01/28 08:13:55;;;;;;;33.35;13.63;;;;;;;2.75;100.00;102504.50;5029489;28;20448;-77
2024/01/28 08:16:21;;;;;;;34.58;13.82;;;;;;;2.87;100.00;102462.69;5020038;28;20036;-77
2024/01/28 08:18:47;;;;;;;29.33;12.27;;;;;;;2.74;100.00;102385.91;5030230;28;20025;-76
2024/01/28 08:21:12;;;;;;;;;;;;;;;3.29;100.00;102425.47;5031515;28;20036;-76
2024/01/28 08:23:37;;;;;;;29.40;12.07;;;;;;;3.11;100.00;102315.53;5030290;28;19913;-77
2024/01/28 08:26:03;;;;;;;35.42;13.60;;;;;;;3.24;100.00;102257.72;5023574;28;20377;-77
2024/01/28 08:28:28;;;;;;;37.35;12.93;;;;;;;3.76;100.00;102269.06;5031313;28;20407;-75
2024/01/28 08:30:54;;;;;;;36.17;12.93;;;;;;;3.46;100.00;102131.56;5012785;28;20400;-76
2024/01/28 08:33:19;;;;;;;23.80;9.93;;;;;;;3.45;100.00;102052.44;5027639;28;20041;-77
2024/01/28 08:35:44;;;;;;;27.77;11.17;;;;;;;4.16;100.00;102129.44;5017964;28;20041;-76
2024/01/28 08:38:10;;;;;;;33.97;10.90;;;;;;;4.31;100.00;101997.31;5035273;28;20306;-76
2024/01/28 08:40:36;;;;;;;29.95;11.57;;;;;;;3.72;100.00;101873.06;5047251;28;20033;-78
2024/01/28 08:43:04;;;;;;;26.50;10.20;;;;;;;4.32;100.00;101946.16;5031173;28;20064;-77
2024/01/28 08:45:29;;;;;;;33.13;10.57;;;;;;;4.61;100.00;101873.81;5014812;28;20031;-77
2024/01/28 08:47:55;;;;;;;28.48;9.25;;;;;;;4.68;100.00;101743.78;5030275;28;20107;-77
2024/01/28 08:50:21;;;;;;;32.00;9.30;;;;;;;4.27;100.00;101620.41;5028042;28;20499;-77
2024/01/28 08:52:46;;;;;;;32.65;10.13;;;;;;;4.55;100.00;101593.84;5023580;28;20051;-77
2024/01/28 08:55:12;;;;;;;26.85;8.85;;;;;;;4.30;100.00;101548.84;5014940;28;20020;-77
2024/01/28 08:57:37;;;;;;;23.83;8.32;;;;;;;4.86;100.00;101619.06;5021552;28;20385;-75
2024/01/28 09:00:05;;;;;;;21.50;6.95;;;;;;;5.81;100.00;101658.44;5024986;28;20131;-75
2024/01/28 09:02:35;;;;;;;27.02;9.65;;;;;;;6.05;100.00;101433.19;5012801;28;20044;-77
2024/01/28 09:05:01;;;;;;;24.50;8.70;;;;;;;6.51;100.00;101434.97;5041449;28;20032;-78
2024/01/28 09:07:27;;;;;;;26.05;7.72;;;;;;;5.48;100.00;101000.41;5048069;28;20120;-77
2024/01/28 09:09:52;;;;;;;;;;;;;;;6.51;100.00;101303.16;5029532;28;20106;-76
2024/01/28 09:12:18;;;;;;;17.02;7.55;;;;;;;6.76;100.00;101179.94;5016859;28;19960;-76
2024/01/28 09:14:43;;;;;;;22.20;7.60;;;;;;;6.54;100.00;100942.13;4998912;28;20041;-76
2024/01/28 09:17:08;;;;;;;18.43;7.43;;;;;;;6.19;100.00;100978.75;5016193;28;20034;-77
2024/01/28 09:19:34;;;;;;;24.53;6.50;;;;;;;6.06;100.00;101074.34;5027171;28;20147;-77
2024/01/28 09:21:59;;;;;;;17.83;6.60;;;;;;;5.74;100.00;100854.41;5008227;28;20044;-76
2024/01/28 09:24:24;;;;;;;21.20;7.50;;;;;;;6.16;100.00;101072.63;5010861;28;20037;-76
2024/01/28 09:26:50;;;;;;;16.33;6.90;;;;;;;6.20;100.00;101052.84;5047294;28;20283;-77
2024/01/28 09:29:15;;;;;;;14.63;6.20;;;;;;;6.32;100.00;100964.34;5014799;28;20495;-77
2024/01/28 09:31:47;;;;;;;15.30;5.45;;;;;;;6.04;100.00;100925.19;5027870;28;20037;-77
2024/01/28 09:34:13;;;;;;;14.48;5.60;;;;;;;6.85;100.00;101010.28;5040978;28;20058;-76
2024/01/28 09:36:38;;;;;;;23.67;6.85;;;;;;;6.87;100.00;101006.53;5028996;28;20127;-77
2024/01/28 09:39:04;;;;;;;17.30;6.57;;;;;;;6.91;100.00;100906.25;5031213;28;20033;-77
2024/01/28 09:41:53;;;;;;;;;;;;;;;5.62;100.00;100752.94;5022737;28;20048;-77
2024/01/28 09:44:18;;;;;;;17.90;6.15;;;;;;;6.06;100.00;101159.16;4968923;28;19916;-75
2024/01/28 09:46:44;;;;;;;23.17;5.97;;;;;;;6.09;100.00;101100.63;5011711;28;20026;-77
2024/01/28 09:49:11;;;;;;;12.00;5.25;;;;;;;6.17;100.00;101174.22;5029562;28;20037;-75
2024/01/28 09:51:38;;;;;;;31.45;8.82;;;;;;;5.23;100.00;101123.28;5030642;28;20090;-76
2024/01/28 09:54:03;;;;;;;20.50;7.05;;;;;;;4.81;100.00;101144.97;5047430;28;20037;-78
2024/01/28 09:56:30;;;;;;;17.55;5.68;;;;;;;6.12;100.00;101452.97;5010897;28;20373;-76
2024/01/28 09:58:56;;;;;;;12.43;5.80;;;;;;;6.50;100.00;101218.38;5018006;28;20034;-76
2024/01/28 10:01:24;;;;;;;27.70;5.95;;;;;;;7.10;100.00;101165.66;5008643;28;20031;-75
2024/01/28 10:03:50;;;;;;;23.15;5.80;;;;;;;7.92;100.00;101048.69;5028815;28;20033;-76
2024/01/28 10:06:15;;;;;;;13.65;4.93;;;;;;;7.15;100.00;100537.66;5010086;28;20055;-76
2024/01/28 10:08:41;;;;;;;16.50;5.30;;;;;;;8.25;100.00;101009.34;5009270;28;20443;-76
2024/01/28 10:11:07;;;;;;;14.60;4.90;;;;;;;7.60;100.00;100526.28;5027666;28;20562;-76
2024/01/28 10:13:33;;;;;;;21.02;5.47;;;;;;;7.51;100.00;100505.91;5024616;28;20065;-76
2024/01/28 10:15:58;;;;;;;16.40;5.10;;;;;;;7.47;100.00;100843.72;5014116;28;20098;-76
2024/01/28 10:18:24;;;;;;;14.57;5.63;;;;;;;7.07;100.00;100417.25;5026242;28;20086;-77
2024/01/28 10:20:50;;;;;;;14.98;4.38;;;;;;;7.02;100.00;100475.25;5019030;28;20083;-76
2024/01/28 10:23:17;;;;;;;15.25;4.05;;;;;;;7.72;100.00;100544.66;5021375;28;20033;-77
2024/01/28 10:25:43;;;;;;;15.18;4.53;;;;;;;8.69;100.00;100756.88;5024397;28;20144;-76
2024/01/28 10:28:08;;;;;;;;;;;;;;;7.60;100.00;100393.44;5024966;28;20048;-76
2024/01/28 10:30:34;;;;;;;15.75;4.25;;;;;;;7.80;100.00;100194.78;5025777;28;19913;-76
2024/01/28 10:33:00;;;;;;;17.02;5.30;;;;;;;8.25;100.00;100360.38;5025505;28;20080;-76
2024/01/28 10:35:25;;;;;;;18.07;5.80;;;;;;;8.48;100.00;100259.63;4996032;28;20033;-76
2024/01/28 10:37:52;;;;;;;11.63;4.88;;;;;;;7.84;100.00;100152.78;5000402;28;20119;-77
2024/01/28 10:40:19;;;;;;;13.95;4.38;;;;;;;7.61;100.00;100261.44;5032928;28;20103;-76
2024/01/28 10:42:47;;;;;;;8.40;3.38;;;;;;;6.60;100.00;99953.16;4999103;28;20079;-76
2024/01/28 10:45:17;;;;;;;20.75;5.10;;;;;;;7.01;100.00;100367.44;5035785;28;20041;-76
2024/01/28 10:47:48;;;;;;;16.92;4.07;;;;;;;6.80;100.00;100346.44;5009168;28;20040;-76
2024/01/28 10:50:14;;;;;;;20.30;4.75;;;;;;;6.75;100.00;100509.56;5026559;28;20076;-76
2024/01/28 10:52:41;;;;;;;11.18;4.57;;;;;;;7.41;100.00;100826.53;5023818;28;20535;-76
2024/01/28 10:55:08;;;;;;;15.75;3.90;;;;;;;8.02;100.00;100780.97;5002258;28;20400;-76
2024/01/28 10:57:35;;;;;;;15.13;4.50;;;;;;;7.61;100.00;100412.88;5001714;28;20033;-76
2024/01/28 11:00:01;;;;;;;21.60;4.28;;;;;;;8.26;100.00;100835.47;5004093;28;20034;-77
2024/01/28 11:02:28;;;;;;;12.50;4.78;;;;;;;7.35;100.00;100540.25;5015042;28;20041;-77
2024/01/28 11:04:55;;;;;;;20.02;4.70;;;;;;;6.74;100.00;100281.53;5009461;28;20116;-76